sensor_id;sensor_type;location;lat;lon;timestamp;pressure;altitude;pressure_sealevel;temperature;humidity
11643;BME280;5877;50.930;6.918;2023-06-04T13:46:44;101283.03;;;26.55;20.17
11643;BME280;5877;50.930;6.918;2023-06-04T13:51:37;101277.97;;;26.40;20.67
11643;BME280;5877;50.930;6.918;2023-06-04T13:56:29;101267.50;;;26.38;19.71
11643;BME280;5877;50.930;6.918;2023-06-04T14:01:21;101269.88;;;26.53;19.75
11643;BME280;5877;50.930;6.918;2023-06-04T14:06:13;101287.16;;;26.39;20.99
11643;BME280;5877;50.930;6.918;2023-06-04T14:11:05;101272.38;;;26.50;21.78
11643;BME280;5877;50.930;6.918;2023-06-04T14:15:58;101272.09;;;26.38;21.88
11643;BME280;5877;50.930;6.918;2023-06-04T14:20:50;101270.50;;;26.37;21.92
11643;BME280;5877;50.930;6.918;2023-06-04T14:25:42;101270.59;;;26.45;21.78
11643;BME280;5877;50.930;6.918;2023-06-04T14:30:35;101292.00;;;26.64;21.55
11643;BME280;5877;50.930;6.918;2023-06-04T14:35:27;101265.22;;;26.81;21.54
11643;BME280;5877;50.930;6.918;2023-06-04T14:40:19;101275.38;;;26.84;21.70
11643;BME280;5877;50.930;6.918;2023-06-04T14:45:12;101269.81;;;26.81;21.92
11643;BME280;5877;50.930;6.918;2023-06-04T14:50:05;101253.38;;;26.69;22.36
11643;BME280;5877;50.930;6.918;2023-06-04T14:54:59;101145.88;;;26.00;22.99
11643;BME280;5877;50.930;6.918;2023-06-04T14:59:51;101242.00;;;26.36;22.72
11643;BME280;5877;50.930;6.918;2023-06-04T15:04:43;101243.28;;;26.25;22.68
11643;BME280;5877;50.930;6.918;2023-06-04T15:09:36;101272.06;;;26.51;22.93
11643;BME280;5877;50.930;6.918;2023-06-04T15:14:29;101228.03;;;26.34;22.85
11643;BME280;5877;50.930;6.918;2023-06-04T15:19:21;101243.72;;;26.68;23.08
11643;BME280;5877;50.930;6.918;2023-06-04T15:24:13;101223.13;;;26.49;22.57
11643;BME280;5877;50.930;6.918;2023-06-04T15:29:06;101227.53;;;26.32;23.01
11643;BME280;5877;50.930;6.918;2023-06-04T15:33:59;101237.84;;;26.66;22.67
11643;BME280;5877;50.930;6.918;2023-06-04T15:38:56;101245.84;;;26.57;22.79
11643;BME280;5877;50.930;6.918;2023-06-04T15:43:51;101244.47;;;26.46;22.68
11643;BME280;5877;50.930;6.918;2023-06-04T15:55:04;101220.28;;;26.68;22.92
11643;BME280;5877;50.930;6.918;2023-06-04T16:00:02;101229.97;;;26.56;23.10
11643;BME280;5877;50.930;6.918;2023-06-04T16:04:55;101220.31;;;26.55;22.84
11643;BME280;5877;50.930;6.918;2023-06-04T16:09:49;101242.84;;;26.59;23.24
11643;BME280;5877;50.930;6.918;2023-06-04T16:14:41;101190.97;;;26.03;23.81
11643;BME280;5877;50.930;6.918;2023-06-04T16:19:34;101206.03;;;26.04;24.09
11643;BME280;5877;50.930;6.918;2023-06-04T16:24:26;101218.50;;;26.00;24.30
11643;BME280;5877;50.930;6.918;2023-06-04T16:29:18;101195.91;;;25.87;24.37
11643;BME280;5877;50.930;6.918;2023-06-04T16:34:12;101148.75;;;25.35;24.58
11643;BME280;5877;50.930;6.918;2023-06-04T16:39:04;101184.00;;;25.47;24.19
11643;BME280;5877;50.930;6.918;2023-06-04T16:43:56;101220.44;;;25.40;24.43
11643;BME280;5877;50.930;6.918;2023-06-04T16:48:49;101167.09;;;25.01;24.72
11643;BME280;5877;50.930;6.918;2023-06-04T16:53:41;101220.41;;;25.26;24.73
11643;BME280;5877;50.930;6.918;2023-06-04T16:58:34;101201.66;;;25.07;24.08
11643;BME280;5877;50.930;6.918;2023-06-04T17:03:29;101190.88;;;24.56;24.60
11643;BME280;5877;50.930;6.918;2023-06-04T17:08:22;101215.81;;;24.75;24.58
11643;BME280;5877;50.930;6.918;2023-06-04T17:13:15;101169.38;;;24.18;24.32
11643;BME280;5877;50.930;6.918;2023-06-04T17:18:08;101200.97;;;24.21;24.47
11643;BME280;5877;50.930;6.918;2023-06-04T17:23:03;101197.91;;;24.09;24.96
11643;BME280;5877;50.930;6.918;2023-06-04T17:28:10;101179.56;;;23.74;24.96
11643;BME280;5877;50.930;6.918;2023-06-04T17:33:03;101221.31;;;24.04;24.94
11643;BME280;5877;50.930;6.918;2023-06-04T17:37:56;101236.31;;;24.05;24.49
11643;BME280;5877;50.930;6.918;2023-06-04T17:42:48;101245.00;;;23.96;24.92
11643;BME280;5877;50.930;6.918;2023-06-04T17:47:40;101244.88;;;23.83;24.71
11643;BME280;5877;50.930;6.918;2023-06-04T17:52:34;101247.19;;;23.66;24.85
11643;BME280;5877;50.930;6.918;2023-06-04T17:57:28;101221.53;;;23.30;25.02
11643;BME280;5877;50.930;6.918;2023-06-04T18:02:21;101238.75;;;23.24;25.31
11643;BME280;5877;50.930;6.918;2023-06-04T18:13:48;101222.63;;;22.95;25.46
11643;BME280;5877;50.930;6.918;2023-06-04T18:18:42;101210.00;;;22.57;26.05
11643;BME280;5877;50.930;6.918;2023-06-04T18:24:47;101199.69;;;22.35;26.29
11643;BME280;5877;50.930;6.918;2023-06-04T18:30:53;101250.72;;;22.49;26.86
11643;BME280;5877;50.930;6.918;2023-06-04T18:36:59;101259.06;;;22.37;26.75
11643;BME280;5877;50.930;6.918;2023-06-04T18:43:04;101261.50;;;22.28;27.34
